Time;durP1;ratioP1;P1;durP2;ratioP2;P2;SDS_P1;SDS_P2;PMS_P1;PMS_P2;Temp;Humidity;BMP_temperature;BMP_pressure;BME280_temperature;BME280_humidity;BME280_pressure;Samples;Min_cycle;Max_cycle;Signal;HPM_P1;HPM_P2
2022/04/29 00:00:47;;;;;;;2.40;1.50;;;19.20;51.60;;;;;;6313923;22;20480;-86
2022/04/29 00:03:14;;;;;;;2.72;1.67;;;19.20;50.90;;;;;;6341173;22;20007;-87
2022/04/29 00:05:41;;;;;;;2.22;1.83;;;19.20;52.10;;;;;;6341787;22;20469;-87
2022/04/29 00:08:09;;;;;;;1.83;1.48;;;19.10;50.50;;;;;;6314243;22;20010;-89
2022/04/29 00:10:35;;;;;;;3.17;1.52;;;19.20;51.40;;;;;;6314334;22;20066;-86
2022/04/29 00:13:03;;;;;;;1.88;1.48;;;19.20;51.00;;;;;;6341014;22;20030;-84
2022/04/29 00:15:30;;;;;;;1.55;1.45;;;19.20;51.60;;;;;;6341117;22;20048;-86
2022/04/29 00:17:56;;;;;;;1.83;1.58;;;19.20;52.10;;;;;;6314056;22;20052;-86
2022/04/29 00:20:22;;;;;;;2.80;1.52;;;19.20;52.90;;;;;;6313558;22;20010;-85
2022/04/29 00:22:48;;;;;;;1.30;1.20;;;19.20;53.40;;;;;;6313026;22;20034;-85
2022/04/29 00:25:14;;;;;;;1.65;1.33;;;19.20;53.40;;;;;;6340544;22;20000;-87
2022/04/29 00:27:41;;;;;;;2.47;1.80;;;19.30;52.80;;;;;;6341343;22;19999;-88
2022/04/29 00:30:09;;;;;;;1.70;1.52;;;19.20;50.80;;;;;;6312571;22;20029;-84
2022/04/29 00:32:37;;;;;;;2.30;1.60;;;19.20;52.60;;;;;;6339335;22;20306;-85
2022/04/29 00:35:03;;;;;;;2.47;1.40;;;19.20;51.10;;;;;;6339676;22;20356;-85
2022/04/29 00:37:30;;;;;;;2.45;1.73;;;19.20;50.30;;;;;;6312702;22;19999;-87
2022/04/29 00:39:56;;;;;;;1.45;1.35;;;19.10;48.70;;;;;;6340884;22;20022;-87
2022/04/29 00:42:22;;;;;;;1.65;1.48;;;19.10;49.70;;;;;;6341281;22;20007;-88
2022/04/29 00:44:49;;;;;;;2.10;1.40;;;19.10;49.70;;;;;;6342140;22;20052;-86
2022/04/29 00:47:20;;;;;;;1.60;1.50;;;19.10;49.80;;;;;;6341501;22;19998;-88
2022/04/29 00:49:47;;;;;;;1.55;1.30;;;19.10;48.10;;;;;;6341199;22;20341;-89
2022/04/29 00:52:19;;;;;;;1.95;1.38;;;19.10;49.30;;;;;;6340487;22;19998;-87
2022/04/29 00:54:52;;;;;;;2.50;1.50;;;19.10;49.60;;;;;;6313051;22;20003;-87
2022/04/29 00:57:28;;;;;;;1.38;1.15;;;19.10;50.10;;;;;;6312666;22;20044;-85
2022/04/29 01:00:09;;;;;;;1.70;1.10;;;19.10;50.30;;;;;;6340656;22;19998;-84
2022/04/29 01:02:39;;;;;;;2.28;1.70;;;19.10;50.60;;;;;;6340650;22;20382;-85
2022/04/29 01:05:07;;;;;;;2.45;1.85;;;19.10;50.60;;;;;;6340692;22;20400;-85
2022/04/29 01:07:34;;;;;;;2.33;1.80;;;19.10;50.50;;;;;;6340323;22;20012;-84
2022/04/29 01:10:00;;;;;;;2.17;1.73;;;19.10;45.90;;;;;;6340788;22;20013;-85
2022/04/29 01:12:30;;;;;;;2.40;1.60;;;19.10;48.80;;;;;;6311558;22;20017;-85
2022/04/29 01:15:00;;;;;;;2.50;1.43;;;19.10;49.00;;;;;;6340327;22;19999;-84
2022/04/29 01:17:26;;;;;;;2.08;1.60;;;19.00;49.00;;;;;;6340599;22;20250;-80
2022/04/29 01:19:52;;;;;;;2.40;1.50;;;19.00;47.30;;;;;;6311258;22;20003;-82
2022/04/29 01:22:17;;;;;;;2.47;1.40;;;19.00;49.20;;;;;;6338505;22;20032;-82
2022/04/29 01:24:44;;;;;;;2.42;1.75;;;19.00;48.30;;;;;;6337790;22;20421;-84
2022/04/29 01:27:11;;;;;;;3.42;1.50;;;19.00;48.30;;;;;;6341448;22;20002;-87
2022/04/29 01:29:42;;;;;;;3.25;1.50;;;19.00;47.20;;;;;;6313820;22;20003;-87
2022/04/29 01:32:11;;;;;;;2.28;1.52;;;19.00;47.80;;;;;;6341725;22;20002;-88
2022/04/29 01:34:37;;;;;;;2.03;1.55;;;19.00;48.10;;;;;;6340996;22;20070;-88
2022/04/29 01:37:04;;;;;;;2.13;1.77;;;18.90;47.70;;;;;;6313855;22;20027;-87
2022/04/29 01:39:29;;;;;;;3.20;2.10;;;18.90;48.50;;;;;;6314155;22;20007;-86
2022/04/29 01:41:55;;;;;;;1.75;1.60;;;18.90;48.90;;;;;;6312690;22;20046;-86
2022/04/29 01:44:21;;;;;;;4.47;2.00;;;18.90;49.10;;;;;;6341566;22;20010;-88
2022/04/29 01:46:47;;;;;;;1.80;1.70;;;18.90;49.10;;;;;;6313950;22;20045;-87
2022/04/29 01:49:13;;;;;;;2.00;1.80;;;18.90;49.60;;;;;;6340743;22;20033;-88
2022/04/29 01:51:39;;;;;;;2.25;1.75;;;18.90;49.40;;;;;;6312186;22;20449;-85
2022/04/29 01:54:09;;;;;;;1.98;1.70;;;18.80;49.00;;;;;;6340771;22;20002;-89
2022/04/29 01:56:35;;;;;;;3.42;1.85;;;18.80;48.80;;;;;;6341321;22;20002;-89
2022/04/29 01:59:03;;;;;;;2.30;1.80;;;18.80;48.90;;;;;;6313557;22;20007;-90
2022/04/29 02:01:29;;;;;;;4.40;2.00;;;18.80;49.10;;;;;;6341386;22;19999;-89
2022/04/29 02:03:55;;;;;;;4.57;2.00;;;18.70;49.80;;;;;;6341280;22;20026;-89
2022/04/29 02:06:22;;;;;;;2.50;2.10;;;18.70;50.10;;;;;;6341170;22;19999;-89
2022/04/29 02:08:48;;;;;;;3.72;2.30;;;18.70;49.60;;;;;;6313595;22;20006;-89
2022/04/29 02:11:14;;;;;;;3.15;2.22;;;18.70;49.30;;;;;;6340478;22;20428;-87
2022/04/29 02:13:40;;;;;;;4.45;2.20;;;18.70;49.00;;;;;;6312687;22;20003;-86
2022/04/29 02:16:05;;;;;;;3.03;2.13;;;18.60;49.10;;;;;;6340568;22;20069;-86
2022/04/29 02:18:31;;;;;;;3.90;2.65;;;18.60;49.30;;;;;;6340811;22;19999;-89
2022/04/29 02:20:57;;;;;;;2.38;2.05;;;18.50;47.80;;;;;;6312396;22;20056;-87
2022/04/29 02:23:22;;;;;;;3.13;2.55;;;18.50;49.40;;;;;;6340032;22;20063;-87
2022/04/29 02:25:48;;;;;;;5.40;3.00;;;18.40;48.20;;;;;;6340320;22;20052;-87
2022/04/29 02:28:14;;;;;;;4.35;3.08;;;18.20;48.60;;;;;;6340864;22;20006;-88
2022/04/29 02:30:40;;;;;;;5.05;2.95;;;17.80;49.10;;;;;;6313521;22;20332;-90
2022/04/29 02:33:07;;;;;;;4.40;2.95;;;17.50;50.20;;;;;;6340368;22;20025;-89
2022/04/29 02:35:33;;;;;;;4.45;2.47;;;17.20;50.60;;;;;;6312834;22;20007;-88
2022/04/29 02:37:59;;;;;;;2.90;2.33;;;17.20;51.60;;;;;;6340631;22;20587;-88
2022/04/29 02:40:24;;;;;;;2.30;2.05;;;17.30;51.20;;;;;;6339528;22;20010;-87
2022/04/29 02:42:50;;;;;;;2.78;1.98;;;17.40;51.30;;;;;;6339071;22;19998;-87
2022/04/29 02:45:16;;;;;;;3.40;2.40;;;17.50;51.40;;;;;;6338213;22;20338;-87
2022/04/29 02:47:42;;;;;;;2.72;2.15;;;17.60;51.60;;;;;;6338811;22;20002;-87
2022/04/29 02:50:08;;;;;;;3.58;2.10;;;17.70;51.80;;;;;;6340859;22;20006;-87
2022/04/29 02:52:34;;;;;;;2.83;1.98;;;17.80;51.90;;;;;;6341256;22;20003;-87
2022/04/29 02:55:00;;;;;;;2.58;1.92;;;17.80;51.90;;;;;;6340399;22;20005;-87
2022/04/29 02:57:25;;;;;;;2.75;1.92;;;17.80;52.00;;;;;;6341516;22;20022;-88
2022/04/29 02:59:51;;;;;;;2.53;2.20;;;17.90;52.40;;;;;;6340969;22;20002;-87
2022/04/29 03:02:17;;;;;;;3.92;2.40;;;17.80;52.20;;;;;;6313245;22;20007;-86
2022/04/29 03:04:43;;;;;;;2.65;2.15;;;17.90;52.60;;;;;;6342916;22;19999;-87
2022/04/29 03:07:08;;;;;;;3.72;2.30;;;17.80;52.30;;;;;;6342449;22;20424;-86
2022/04/29 03:09:34;;;;;;;3.78;2.42;;;17.80;52.50;;;;;;6342254;22;20040;-88
2022/04/29 03:12:00;;;;;;;2.78;2.38;;;17.80;52.80;;;;;;6341994;22;20432;-87
2022/04/29 03:14:46;;;;;;;3.30;2.38;;;17.70;52.50;;;;;;6340599;22;20053;-87
2022/04/29 03:18:18;;;;;;;3.08;2.20;;;17.60;52.90;;;;;;6313729;22;20006;-86
2022/04/29 03:19:59;;;;;;;4.07;2.53;;;17.70;52.70;;;;;;6342265;22;20421;-86
2022/04/29 03:22:28;;;;;;;4.03;2.95;;;17.60;52.90;;;;;;6341398;22;20082;-85
2022/04/29 03:24:54;;;;;;;3.75;2.53;;;17.60;53.20;;;;;;6340578;22;20294;-87
2022/04/29 03:27:20;;;;;;;5.43;2.88;;;17.60;53.50;;;;;;6313212;22;20010;-88
2022/04/29 03:29:47;;;;;;;2.92;2.20;;;17.60;53.20;;;;;;6314635;22;20007;-88
2022/04/29 03:32:13;;;;;;;4.22;2.50;;;17.60;53.40;;;;;;6342008;22;20007;-86
2022/04/29 03:34:39;;;;;;;4.63;2.30;;;17.50;53.80;;;;;;6342244;22;20452;-87
2022/04/29 03:37:05;;;;;;;3.05;2.58;;;17.50;53.70;;;;;;6313801;22;19999;-86
2022/04/29 03:39:31;;;;;;;2.70;2.28;;;17.50;54.80;;;;;;6341789;22;20014;-87
2022/04/29 03:41:57;;;;;;;2.50;2.20;;;17.50;53.90;;;;;;6341447;22;20318;-89
2022/04/29 03:44:23;;;;;;;3.13;2.50;;;17.50;53.90;;;;;;6341567;22;20034;-87
2022/04/29 03:46:48;;;;;;;4.65;2.60;;;17.50;54.10;;;;;;6315026;22;20405;-87
2022/04/29 03:51:58;;;;;;;3.08;2.65;;;17.40;53.50;;;;;;6341505;22;20555;-85
2022/04/29 03:54:24;;;;;;;3.80;2.70;;;17.50;53.60;;;;;;6341129;22;19998;-87
2022/04/29 03:56:51;;;;;;;4.18;2.53;;;17.40;53.70;;;;;;6340693;22;20013;-83
2022/04/29 03:59:17;;;;;;;3.38;2.50;;;17.40;53.80;;;;;;6339243;22;19995;-83
2022/04/29 04:01:42;;;;;;;4.50;2.47;;;17.40;53.70;;;;;;6339531;22;19998;-85
2022/04/29 04:04:08;;;;;;;3.10;2.80;;;17.40;53.70;;;;;;6339919;22;19999;-86
2022/04/29 04:09:21;;;;;;;6.43;2.50;;;17.30;54.10;;;;;;6340578;22;20340;-86
2022/04/29 04:11:48;;;;;;;3.28;2.53;;;17.30;54.30;;;;;;6340408;22;20417;-85
2022/04/29 04:14:15;;;;;;;3.95;2.67;;;17.30;54.50;;;;;;6339360;22;20448;-84
2022/04/29 04:16:41;;;;;;;2.60;2.40;;;17.30;54.70;;;;;;6338924;22;19999;-85
2022/04/29 04:19:06;;;;;;;2.63;2.30;;;17.20;54.70;;;;;;6311917;22;20003;-86
2022/04/29 04:21:32;;;;;;;3.42;2.42;;;17.20;54.70;;;;;;6339624;22;20328;-84
2022/04/29 04:23:58;;;;;;;3.67;2.35;;;17.20;54.70;;;;;;6340815;22;19999;-86
2022/04/29 04:26:24;;;;;;;3.90;2.65;;;17.20;55.10;;;;;;6340733;22;20030;-85
2022/04/29 04:28:49;;;;;;;5.03;2.70;;;17.20;55.30;;;;;;6338275;22;19998;-84
2022/04/29 04:31:15;;;;;;;3.67;2.67;;;17.10;56.00;;;;;;6340238;22;20006;-84
2022/04/29 04:33:41;;;;;;;5.00;2.80;;;17.00;56.20;;;;;;6339272;22;20514;-83
2022/04/29 04:36:09;;;;;;;3.75;2.92;;;16.80;56.70;;;;;;6338812;22;20476;-82
2022/04/29 04:38:36;;;;;;;5.18;3.30;;;16.60;57.50;;;;;;6310526;22;20326;-82
2022/04/29 04:41:03;;;;;;;5.18;3.30;;;16.50;58.00;;;;;;6338405;22;20007;-81
2022/04/29 04:43:28;;;;;;;5.22;3.15;;;16.40;58.40;;;;;;6338083;22;20017;-81
2022/04/29 04:45:54;;;;;;;4.65;3.35;;;16.40;58.80;;;;;;6338529;22;20030;-82
2022/04/29 04:48:20;;;;;;;3.28;2.50;;;16.30;58.10;;;;;;6338038;22;20024;-83
2022/04/29 04:50:46;;;;;;;5.55;3.22;;;16.20;58.30;;;;;;6311777;22;20013;-84
2022/04/29 04:53:12;;;;;;;5.72;3.35;;;16.10;58.60;;;;;;6338746;22;20003;-85
2022/04/29 04:55:38;;;;;;;7.82;3.13;;;16.10;58.90;;;;;;6338359;22;20044;-82
2022/04/29 04:58:06;;;;;;;3.25;2.40;;;16.00;57.80;;;;;;6334980;22;20021;-83
2022/04/29 05:00:33;;;;;;;3.92;2.85;;;16.10;58.30;;;;;;6310463;22;20010;-82
2022/04/29 05:02:59;;;;;;;3.75;3.15;;;16.20;58.20;;;;;;6284679;22;20028;-81
2022/04/29 05:05:25;;;;;;;3.28;2.92;;;16.20;58.60;;;;;;6312268;22;20064;-83
2022/04/29 05:07:50;;;;;;;4.32;2.70;;;16.30;58.00;;;;;;6312810;22;20014;-87
2022/04/29 05:10:18;;;;;;;7.15;3.28;;;16.30;57.70;;;;;;6313977;22;20456;-86
2022/04/29 05:12:46;;;;;;;5.13;3.58;;;16.30;57.20;;;;;;6339515;22;20003;-85
2022/04/29 05:15:14;;;;;;;5.60;2.92;;;16.20;56.60;;;;;;6339425;22;20101;-85
2022/04/29 05:17:40;;;;;;;3.72;2.67;;;16.20;56.10;;;;;;6312667;22;20003;-86
2022/04/29 05:20:09;;;;;;;5.25;3.03;;;16.30;56.20;;;;;;6340180;22;19998;-85
2022/04/29 05:22:34;;;;;;;5.05;3.58;;;16.30;56.10;;;;;;6312886;22;20086;-86
2022/04/29 05:25:00;;;;;;;3.78;2.80;;;16.40;55.40;;;;;;6312843;22;20010;-86
2022/04/29 05:27:26;;;;;;;6.43;3.28;;;16.40;55.60;;;;;;6339169;22;20002;-86
2022/04/29 05:29:52;;;;;;;4.60;3.03;;;16.40;55.80;;;;;;6337939;22;20106;-84
2022/04/29 05:32:18;;;;;;;5.63;2.67;;;16.50;56.00;;;;;;6339124;22;20003;-84
2022/04/29 05:34:46;;;;;;;2.72;2.30;;;16.50;55.10;;;;;;6338328;22;20077;-87
2022/04/29 05:37:12;;;;;;;5.90;4.10;;;16.60;55.40;;;;;;6341746;22;20429;-86
2022/04/29 05:42:23;;;;;;;5.13;2.88;;;16.70;55.20;;;;;;6339720;22;20468;-82
2022/04/29 05:44:49;;;;;;;4.38;2.40;;;16.90;55.40;;;;;;6311775;22;20041;-81
2022/04/29 05:47:15;;;;;;;4.80;2.90;;;17.00;55.70;;;;;;6339052;22;20369;-82
2022/04/29 05:49:41;;;;;;;5.72;2.83;;;17.10;56.30;;;;;;6311046;22;20429;-82
2022/04/29 05:52:09;;;;;;;6.18;2.22;;;17.20;55.90;;;;;;6338987;22;20003;-82
2022/04/29 05:54:35;;;;;;;4.07;2.88;;;17.30;55.70;;;;;;6339219;22;19994;-82
2022/04/29 05:57:02;;;;;;;3.20;2.45;;;17.30;54.90;;;;;;6338090;22;20003;-80
2022/04/29 05:59:28;;;;;;;2.72;2.13;;;17.30;53.60;;;;;;6338501;22;20108;-81
2022/04/29 06:01:54;;;;;;;4.03;2.53;;;17.40;53.00;;;;;;6337554;22;19995;-79
2022/04/29 06:04:20;;;;;;;8.00;2.20;;;17.40;53.00;;;;;;6310961;22;20007;-80
2022/04/29 06:06:46;;;;;;;5.53;2.35;;;17.50;53.80;;;;;;6311358;22;20325;-86
2022/04/29 06:09:12;;;;;;;3.10;2.20;;;17.50;52.90;;;;;;6339741;22;19998;-79
2022/04/29 06:11:38;;;;;;;4.97;2.28;;;17.60;52.50;;;;;;6338598;22;20005;-79
2022/04/29 06:14:04;;;;;;;3.25;2.22;;;17.60;52.70;;;;;;6338175;22;20030;-78
2022/04/29 06:16:29;;;;;;;2.33;1.98;;;17.60;51.20;;;;;;6338647;22;20397;-79
2022/04/29 06:18:55;;;;;;;2.75;2.00;;;17.70;51.40;;;;;;6339007;22;20003;-84
2022/04/29 06:21:21;;;;;;;4.72;2.10;;;17.70;51.50;;;;;;6339200;22;19999;-83
2022/04/29 06:23:47;;;;;;;3.63;1.77;;;17.80;51.10;;;;;;6338713;22;20362;-79
2022/04/29 06:26:13;;;;;;;2.42;2.10;;;17.80;51.10;;;;;;6340909;22;20025;-80
2022/04/29 06:28:39;;;;;;;3.35;1.90;;;17.80;49.90;;;;;;6312620;22;20003;-80
2022/04/29 06:31:05;;;;;;;3.25;2.03;;;17.80;50.40;;;;;;6334726;22;20003;-79
2022/04/29 06:33:32;;;;;;;2.85;2.10;;;17.90;50.20;;;;;;6336153;22;20010;-79
2022/04/29 06:35:57;;;;;;;4.13;2.40;;;17.90;49.60;;;;;;6339847;22;20002;-79
2022/04/29 06:38:24;;;;;;;2.88;1.67;;;18.00;47.70;;;;;;6340088;22;19999;-81
2022/04/29 06:40:50;;;;;;;5.32;2.03;;;18.00;48.80;;;;;;6340133;22;20021;-81
2022/04/29 06:43:16;;;;;;;2.63;1.92;;;18.00;48.00;;;;;;6338747;22;20406;-81
2022/04/29 06:45:43;;;;;;;2.88;2.00;;;18.10;48.40;;;;;;6339663;22;20029;-81
2022/04/29 06:48:09;;;;;;;4.22;2.35;;;18.10;48.90;;;;;;6310180;22;20006;-81
2022/04/29 06:50:34;;;;;;;1.70;1.52;;;18.20;48.80;;;;;;6308281;22;20013;-80
2022/04/29 06:53:00;;;;;;;2.45;1.70;;;18.20;48.70;;;;;;6309885;22;20010;-81
2022/04/29 06:55:27;;;;;;;3.13;1.90;;;18.30;48.60;;;;;;6338075;22;19995;-80
2022/04/29 06:57:53;;;;;;;3.95;2.38;;;18.30;48.40;;;;;;6338399;22;20079;-81
2022/04/29 07:00:19;;;;;;;1.95;1.63;;;18.40;46.50;;;;;;6338451;22;20022;-81
2022/04/29 07:02:46;;;;;;;6.07;2.10;;;18.40;47.40;;;;;;6311490;22;20086;-82
2022/04/29 07:05:12;;;;;;;4.25;1.92;;;18.40;46.10;;;;;;6338786;22;20007;-82
2022/04/29 07:07:37;;;;;;;2.20;1.73;;;18.50;47.10;;;;;;6339980;22;20079;-81
2022/04/29 07:10:04;;;;;;;2.40;1.80;;;18.50;47.00;;;;;;6340333;22;20421;-81
2022/04/29 07:12:34;;;;;;;3.15;1.40;;;18.60;46.90;;;;;;6340163;22;20056;-81
2022/04/29 07:15:00;;;;;;;2.42;1.77;;;18.70;46.20;;;;;;6312055;22;20007;-82
2022/04/29 07:17:26;;;;;;;2.15;1.63;;;18.70;46.40;;;;;;6339685;22;20017;-81
2022/04/29 07:19:53;;;;;;;3.03;2.00;;;18.80;46.10;;;;;;6340249;22;19998;-81
2022/04/29 07:22:19;;;;;;;1.90;1.65;;;18.80;45.30;;;;;;6339963;22;20009;-83
2022/04/29 07:24:45;;;;;;;5.10;2.38;;;18.80;45.00;;;;;;6338370;22;19999;-83
2022/04/29 07:27:13;;;;;;;3.03;1.70;;;18.80;42.90;;;;;;6340680;22;19998;-82
2022/04/29 07:29:39;;;;;;;2.60;1.52;;;18.80;44.60;;;;;;6341641;22;20013;-82
2022/04/29 07:32:05;;;;;;;2.55;1.63;;;18.90;45.00;;;;;;6311993;22;20003;-83
2022/04/29 07:42:44;;;;;;;2.72;1.90;;;19.20;45.60;;;;;;6340563;22;20095;-81
2022/04/29 07:45:10;;;;;;;2.95;1.92;;;19.30;45.70;;;;;;6339318;22;19991;-81
2022/04/29 07:47:36;;;;;;;2.45;1.92;;;19.30;46.00;;;;;;6311301;22;20013;-81
2022/04/29 07:50:03;;;;;;;4.95;2.10;;;19.40;45.90;;;;;;6338948;22;20069;-82
2022/04/29 07:52:29;;;;;;;3.28;2.25;;;19.50;45.90;;;;;;6339903;22;20074;-81
2022/04/29 07:54:55;;;;;;;3.15;1.88;;;19.50;46.00;;;;;;6312029;22;20029;-81
2022/04/29 07:57:20;;;;;;;4.13;1.95;;;19.50;46.00;;;;;;6339843;22;20011;-82
2022/04/29 07:59:46;;;;;;;2.83;2.38;;;19.60;46.40;;;;;;6311936;22;20003;-81
2022/04/29 08:02:12;;;;;;;3.17;2.15;;;19.60;46.70;;;;;;6339619;22;20010;-81
2022/04/29 08:04:38;;;;;;;2.97;2.10;;;19.70;46.40;;;;;;6338024;22;20128;-81
2022/04/29 08:07:03;;;;;;;2.85;1.80;;;19.70;47.90;;;;;;6309886;22;20052;-81
2022/04/29 08:09:29;;;;;;;3.58;2.55;;;19.80;47.20;;;;;;6338679;22;20424;-81
2022/04/29 08:11:56;;;;;;;2.45;1.95;;;19.90;47.40;;;;;;6337930;22;20073;-80
2022/04/29 08:14:22;;;;;;;2.17;1.90;;;20.00;47.30;;;;;;6337516;22;20001;-80
2022/04/29 08:16:49;;;;;;;5.43;2.75;;;20.00;47.00;;;;;;6309629;22;20021;-81
2022/04/29 08:19:15;;;;;;;6.38;2.20;;;20.10;46.70;;;;;;6337671;22;20002;-80
2022/04/29 08:21:41;;;;;;;5.95;3.47;;;20.20;45.30;;;;;;6337907;22;20006;-80
2022/04/29 08:24:07;;;;;;;3.15;1.95;;;20.20;42.10;;;;;;6310303;22;20100;-81
2022/04/29 08:26:33;;;;;;;2.33;1.65;;;20.20;44.10;;;;;;6310420;22;20010;-80
2022/04/29 08:28:58;;;;;;;3.90;2.30;;;20.30;45.10;;;;;;6310090;22;20007;-80
2022/04/29 08:31:25;;;;;;;2.10;1.70;;;20.40;45.20;;;;;;6337924;22;20035;-80
2022/04/29 08:33:51;;;;;;;4.88;2.17;;;20.40;44.50;;;;;;6337443;22;20729;-81
2022/04/29 08:36:18;;;;;;;2.35;1.98;;;20.50;42.20;;;;;;6310257;22;20010;-81
2022/04/29 08:38:44;;;;;;;2.50;1.80;;;20.50;42.30;;;;;;6310253;22;20006;-81
2022/04/29 08:41:10;;;;;;;1.77;1.55;;;20.60;43.10;;;;;;6339617;22;19998;-81
2022/04/29 08:43:38;;;;;;;5.70;2.50;;;20.60;43.10;;;;;;6338797;22;20324;-81
2022/04/29 08:46:06;;;;;;;2.72;2.10;;;20.70;41.90;;;;;;6311001;22;20056;-80
2022/04/29 08:48:33;;;;;;;2.63;1.98;;;20.70;41.70;;;;;;6310937;22;20007;-80
2022/04/29 08:50:59;;;;;;;2.38;1.52;;;20.70;41.60;;;;;;6339052;22;19999;-79
2022/04/29 08:53:25;;;;;;;3.90;1.55;;;20.80;42.10;;;;;;6338714;22;20397;-80
2022/04/29 08:58:39;;;;;;;2.17;1.40;;;21.00;42.30;;;;;;6338730;22;20044;-80
2022/04/29 09:01:05;;;;;;;2.60;1.95;;;21.20;42.80;;;;;;6337183;22;20351;-80
2022/04/29 09:03:31;;;;;;;1.40;1.20;;;21.30;41.90;;;;;;6338694;22;19999;-80
2022/04/29 09:05:57;;;;;;;1.70;1.42;;;21.40;42.60;;;;;;6308778;22;20007;-78
2022/04/29 09:08:23;;;;;;;1.77;1.33;;;21.40;39.80;;;;;;6336772;22;20010;-77
2022/04/29 09:10:58;;;;;;;2.10;1.30;;;21.50;41.20;;;;;;6337959;22;20069;-77
2022/04/29 09:13:27;;;;;;;1.80;1.50;;;21.60;40.80;;;;;;6337917;22;20007;-78
2022/04/29 09:15:58;;;;;;;2.45;1.85;;;21.70;40.60;;;;;;6338122;22;20003;-78
2022/04/29 09:18:44;;;;;;;2.08;1.50;;;21.80;39.20;;;;;;6338410;22;19995;-79
2022/04/29 09:21:15;;;;;;;1.42;1.20;;;21.90;39.70;;;;;;6304196;22;20009;-78
2022/04/29 09:23:45;;;;;;;;;;;22.00;40.10;;;;;;6309285;22;20003;-78
2022/04/29 09:26:24;;;;;;;3.08;1.90;;;22.10;37.70;;;;;;6337100;22;19911;-78
2022/04/29 09:29:13;;;;;;;3.90;1.50;;;22.20;36.90;;;;;;6337549;22;20010;-78
2022/04/29 09:34:54;;;;;;;3.33;1.60;;;22.30;37.40;;;;;;6270595;22;20028;-81
2022/04/29 09:37:21;;;;;;;1.52;1.38;;;22.30;37.50;;;;;;6273854;22;20007;-80
2022/04/29 09:39:57;;;;;;;1.58;1.33;;;22.40;38.10;;;;;;6274551;22;20000;-80
2022/04/29 09:42:24;;;;;;;3.15;2.17;;;22.50;38.20;;;;;;6274698;22;20430;-78
2022/04/29 09:44:51;;;;;;;2.85;1.52;;;22.50;35.20;;;;;;6273151;22;20040;-79
2022/04/29 09:47:21;;;;;;;1.52;1.40;;;22.60;37.00;;;;;;6274312;22;20493;-80
2022/04/29 09:49:59;;;;;;;4.13;1.85;;;22.60;36.20;;;;;;6274334;22;20008;-83
2022/04/29 09:52:26;;;;;;;3.13;1.60;;;22.60;34.20;;;;;;6270007;22;20014;-83
2022/04/29 09:54:52;;;;;;;2.45;1.65;;;22.50;35.80;;;;;;6267765;22;20377;-83
2022/04/29 09:57:27;;;;;;;2.42;1.20;;;22.60;36.90;;;;;;6272895;22;20402;-83
2022/04/29 09:59:55;;;;;;;1.98;1.50;;;22.80;37.30;;;;;;6298193;22;20000;-83
2022/04/29 10:02:23;;;;;;;1.70;1.10;;;22.80;35.20;;;;;;6272847;22;20007;-82
2022/04/29 10:04:51;;;;;;;2.15;1.38;;;23.00;36.20;;;;;;6274021;22;20091;-84
2022/04/29 10:07:18;;;;;;;2.28;1.40;;;23.10;35.00;;;;;;6273999;22;20010;-79
2022/04/29 10:09:50;;;;;;;1.58;1.10;;;23.10;35.70;;;;;;6275196;22;20049;-83
2022/04/29 10:12:18;;;;;;;2.58;1.48;;;23.30;35.90;;;;;;6272417;22;20386;-83
2022/04/29 10:14:45;;;;;;;1.73;1.08;;;23.50;35.90;;;;;;6274455;22;20008;-80
2022/04/29 10:22:51;;;;;;;2.15;1.48;;;23.80;34.50;;;;;;6273991;22;20103;-79
2022/04/29 10:25:20;;;;;;;3.70;1.25;;;23.90;32.70;;;;;;6273772;22;20083;-79
2022/04/29 10:27:48;;;;;;;3.15;1.40;;;23.80;33.20;;;;;;6247295;22;20087;-79
2022/04/29 10:30:15;;;;;;;3.40;1.70;;;23.80;34.20;;;;;;6273671;22;20011;-79
2022/04/29 10:33:06;;;;;;;4.07;1.33;;;23.90;33.50;;;;;;6274742;22;20004;-78
2022/04/29 10:35:42;;;;;;;1.85;1.40;;;24.10;34.90;;;;;;6274508;22;20048;-80
2022/04/29 10:38:34;;;;;;;4.60;1.65;;;24.20;35.00;;;;;;6274136;22;20195;-80
2022/04/29 10:41:09;;;;;;;2.60;1.40;;;24.40;34.10;;;;;;6272617;22;20007;-79
2022/04/29 10:43:58;;;;;;;2.45;1.23;;;24.50;34.00;;;;;;6273039;22;20031;-78
2022/04/29 10:46:36;;;;;;;2.20;1.20;;;24.60;34.00;;;;;;6272812;22;20004;-81
2022/04/29 10:49:27;;;;;;;2.70;1.35;;;24.80;33.40;;;;;;6273728;22;20008;-78
2022/04/29 10:51:59;;;;;;;1.95;1.40;;;24.90;33.50;;;;;;6272696;22;20231;-79
2022/04/29 10:54:50;;;;;;;1.80;1.45;;;25.10;33.70;;;;;;6273896;22;20007;-81
2022/04/29 10:57:17;;;;;;;2.28;1.38;;;25.20;33.60;;;;;;6268464;22;20004;-77
2022/04/29 11:00:00;;;;;;;2.13;1.40;;;25.30;32.90;;;;;;6269179;22;20437;-78
2022/04/29 11:02:31;;;;;;;4.43;1.42;;;25.30;32.80;;;;;;6273401;22;20460;-78
2022/04/29 11:04:58;;;;;;;2.10;1.27;;;25.40;33.20;;;;;;6272972;22;20214;-79
2022/04/29 11:07:38;;;;;;;2.28;1.35;;;25.40;32.40;;;;;;6267688;22;20007;-79
2022/04/29 11:10:05;;;;;;;;;;;25.50;32.70;;;;;;6274183;22;20027;-78
2022/04/29 11:12:39;;;;;;;2.00;1.25;;;25.60;32.10;;;;;;6275592;22;19903;-82
2022/04/29 11:15:21;;;;;;;2.13;1.50;;;25.70;32.30;;;;;;6275165;22;20026;-82
2022/04/29 11:17:47;;;;;;;1.65;1.20;;;25.90;31.70;;;;;;6298359;22;20053;-83
2022/04/29 11:20:32;;;;;;;3.47;1.63;;;25.90;31.80;;;;;;6273700;22;20003;-83
2022/04/29 11:26:00;;;;;;;7.32;1.60;;;26.10;31.10;;;;;;6274775;22;20115;-83
2022/04/29 11:28:27;;;;;;;2.55;1.60;;;26.30;32.50;;;;;;6274615;22;20026;-84
2022/04/29 11:31:08;;;;;;;2.55;1.70;;;26.50;31.40;;;;;;6269120;22;20000;-82
2022/04/29 11:33:34;;;;;;;1.88;1.60;;;27.10;30.60;;;;;;6242896;22;20425;-83
2022/04/29 11:36:13;;;;;;;3.60;1.50;;;27.80;30.20;;;;;;6274389;22;19996;-82
2022/04/29 11:38:44;;;;;;;4.45;1.73;;;28.40;30.30;;;;;;6274226;22;20011;-83
2022/04/29 11:41:27;;;;;;;2.63;1.50;;;29.00;29.70;;;;;;6275492;22;20024;-82
2022/04/29 11:43:53;;;;;;;2.95;1.33;;;29.50;29.70;;;;;;6275233;22;20004;-82
2022/04/29 11:46:21;;;;;;;2.90;1.38;;;29.90;29.50;;;;;;6273944;22;20114;-82
2022/04/29 11:48:59;;;;;;;2.83;1.55;;;30.30;28.20;;;;;;6275235;22;20036;-78
2022/04/29 11:51:26;;;;;;;2.35;1.77;;;30.20;27.70;;;;;;6274473;22;20007;-79
2022/04/29 11:54:00;;;;;;;28.08;4.13;;;30.30;26.50;;;;;;6274625;22;20489;-80
2022/04/29 11:56:35;;;;;;;1.40;1.20;;;30.60;26.90;;;;;;6275527;22;20075;-80
2022/04/29 11:59:07;;;;;;;2.53;1.30;;;30.90;28.20;;;;;;6274730;22;20030;-80
2022/04/29 12:01:34;;;;;;;2.72;1.52;;;31.20;28.00;;;;;;6273889;22;20006;-79
2022/04/29 12:04:01;;;;;;;2.17;1.42;;;31.20;27.60;;;;;;6274038;22;20004;-82
2022/04/29 12:06:26;;;;;;;2.28;1.65;;;31.30;27.40;;;;;;6274322;22;20035;-84
2022/04/29 12:08:52;;;;;;;2.42;1.30;;;31.20;26.70;;;;;;6275178;22;20329;-84
2022/04/29 12:11:30;;;;;;;1.92;1.55;;;31.40;27.50;;;;;;6275905;22;20003;-83
2022/04/29 12:14:13;;;;;;;1.80;1.50;;;31.70;27.70;;;;;;6273980;22;20057;-78
2022/04/29 12:16:50;;;;;;;2.33;1.50;;;31.90;27.30;;;;;;6273076;22;20496;-79
2022/04/29 12:19:23;;;;;;;1.58;1.30;;;32.10;26.70;;;;;;6273201;22;20008;-79
2022/04/29 12:21:56;;;;;;;1.75;1.48;;;32.10;26.40;;;;;;6273112;22;20441;-80
2022/04/29 12:24:23;;;;;;;2.60;1.30;;;32.10;24.90;;;;;;6274446;22;20071;-79
2022/04/29 12:27:06;;;;;;;3.30;1.40;;;32.20;25.10;;;;;;6274206;22;20021;-81
2022/04/29 12:29:34;;;;;;;4.10;1.83;;;32.50;25.30;;;;;;6274394;22;20015;-82
2022/04/29 12:35:24;;;;;;;3.53;1.38;;;33.00;25.10;;;;;;6272452;22;20038;-82
2022/04/29 12:37:54;;;;;;;3.55;1.45;;;33.20;24.50;;;;;;6265406;22;20008;-83
2022/04/29 12:40:27;;;;;;;1.90;1.30;;;33.60;24.10;;;;;;6276296;22;19998;-83
2022/04/29 12:42:52;;;;;;;1.77;1.33;;;33.60;24.60;;;;;;6275292;22;20019;-83
2022/04/29 12:45:24;;;;;;;1.67;1.35;;;33.70;24.70;;;;;;6274799;22;20004;-88
2022/04/29 12:48:00;;;;;;;1.70;1.30;;;33.70;24.00;;;;;;6276425;22;19999;-88
2022/04/29 12:50:38;;;;;;;2.15;1.60;;;33.90;24.10;;;;;;6275634;22;20649;-87
2022/04/29 12:53:08;;;;;;;2.60;1.48;;;33.60;23.10;;;;;;6277185;22;20003;-87
2022/04/29 12:55:46;;;;;;;1.98;1.40;;;33.90;23.20;;;;;;6276450;22;20031;-87
2022/04/29 12:58:12;;;;;;;2.20;1.17;;;33.60;22.10;;;;;;6276487;22;20321;-86
2022/04/29 13:00:39;;;;;;;2.70;1.52;;;33.80;22.70;;;;;;6276224;22;20071;-87
2022/04/29 13:03:30;;;;;;;1.77;1.20;;;34.00;22.70;;;;;;6276451;22;20475;-87
2022/04/29 13:05:58;;;;;;;1.42;1.10;;;34.30;22.60;;;;;;6275139;22;20418;-86
2022/04/29 13:08:24;;;;;;;1.98;1.30;;;34.50;23.20;;;;;;6276064;22;20024;-86
2022/04/29 13:10:57;;;;;;;1.80;1.20;;;34.30;22.80;;;;;;6276098;22;20007;-86
2022/04/29 13:13:24;;;;;;;1.67;1.30;;;34.30;23.10;;;;;;6276516;22;19999;-85
2022/04/29 13:15:51;;;;;;;1.35;1.10;;;34.40;22.60;;;;;;6276960;22;20000;-86
2022/04/29 13:18:20;;;;;;;2.03;1.42;;;34.40;23.00;;;;;;6276646;22;20089;-87
2022/04/29 13:20:47;;;;;;;3.07;1.50;;;34.20;23.00;;;;;;6276391;22;19996;-86
2022/04/29 13:23:13;;;;;;;2.53;1.30;;;34.00;22.40;;;;;;6275450;22;20000;-87
2022/04/29 13:25:40;;;;;;;1.92;1.25;;;33.70;22.90;;;;;;6275878;22;20007;-81
2022/04/29 13:28:07;;;;;;;2.25;1.50;;;33.60;23.20;;;;;;6275546;22;20007;-82